Time;durP1;ratioP1;P1;durP2;ratioP2;P2;SDS_P1;SDS_P2;PMS_P1;PMS_P2;Temp;Humidity;BMP_temperature;BMP_pressure;BME280_temperature;BME280_humidity;BME280_pressure;Samples;Min_cycle;Max_cycle;Signal;HPM_P1;HPM_P2
2022/08/16 00:00:00;;;;;;;;;;;;;;;16.71;55.49;100072.28;5069333;28;1918;-56
2022/08/16 00:02:25;;;;;;;;;;;;;;;16.73;55.15;100072.00;5042317;28;1069;-56
2022/08/16 00:04:51;;;;;;;;;;;;;;;16.68;55.09;100070.13;5070391;28;1375;-56
2022/08/16 00:07:16;;;;;;;;;;;;;;;16.66;55.09;100077.03;5068253;28;1103;-56
2022/08/16 00:09:41;;;;;;;;;;;;;;;16.64;55.05;100084.75;5071271;28;1151;-55
2022/08/16 00:12:07;;;;;;;;;;;;;;;16.57;55.21;100087.81;5073029;28;961;-54
2022/08/16 00:14:32;;;;;;;;;;;;;;;17.65;56.01;100091.19;5046357;28;1065;-55
2022/08/16 00:16:58;;;;;;;;;;;;;;;17.22;56.38;100090.13;5066832;28;1175;-55
2022/08/16 00:19:24;;;;;;;;;;;;;;;16.97;56.64;100101.41;5072261;28;2383;-54
2022/08/16 00:21:50;;;;;;;;;;;;;;;16.89;56.14;100097.41;5069892;28;1147;-55
2022/08/16 00:24:16;;;;;;;;;;;;;;;16.83;55.65;100090.28;5073284;28;1032;-55
2022/08/16 00:26:42;;;;;;;;;;;;;;;16.77;55.60;100089.53;5064770;28;2486;-55
2022/08/16 00:29:07;;;;;;;;;;;;;;;16.73;55.58;100088.47;5062019;28;1178;-55
2022/08/16 00:31:33;;;;;;;;;;;;;;;16.67;55.37;100095.13;5075236;28;1052;-55
2022/08/16 00:33:58;;;;;;;;;;;;;;;16.66;55.35;100110.81;5052538;28;1199;-55
2022/08/16 00:36:24;;;;;;;;;;;;;;;16.62;55.07;100108.91;5060830;28;1017;-56
2022/08/16 00:38:49;;;;;;;;;;;;;;;16.58;55.66;100116.91;5067048;28;969;-53
2022/08/16 00:41:15;;;;;;;;;;;;;;;17.78;55.88;100112.44;5069006;28;1897;-55
2022/08/16 00:43:40;;;;;;;;;;;;;;;17.28;56.47;100110.13;5071631;28;1020;-56
2022/08/16 00:46:09;;;;;;;;;;;;;;;17.04;56.43;100099.97;5055446;28;1126;-56
2022/08/16 00:48:34;;;;;;;;;;;;;;;16.91;56.25;100106.16;5065356;28;1016;-54
2022/08/16 00:51:00;;;;;;;;;;;;;;;16.86;56.03;100115.25;5066541;28;1044;-55
2022/08/16 00:53:26;;;;;;;;;;;;;;;16.81;55.55;100117.22;5044851;28;1376;-55
2022/08/16 00:55:52;;;;;;;;;;;;;;;16.75;55.56;100117.28;5063491;28;1103;-55
2022/08/16 00:58:18;;;;;;;;;;;;;;;16.71;55.28;100109.91;5026607;28;2502;-55
2022/08/16 01:00:45;;;;;;;;;;;;;;;16.60;55.31;100111.94;5063066;28;1917;-55
2022/08/16 01:03:11;;;;;;;;;;;;;;;16.61;55.41;100110.84;5070767;28;1183;-56
2022/08/16 01:05:36;;;;;;;;;;;;;;;16.57;55.12;100118.81;5032225;28;1230;-55
2022/08/16 01:08:02;;;;;;;;;;;;;;;16.50;55.48;100112.06;5038333;28;1496;-55
2022/08/16 01:10:29;;;;;;;;;;;;;;;17.54;55.88;100104.25;5065211;28;1013;-55
2022/08/16 01:12:54;;;;;;;;;;;;;;;17.40;56.50;100102.28;5050624;28;1088;-54
2022/08/16 01:15:20;;;;;;;;;;;;;;;17.08;56.67;100102.94;5070626;28;1180;-53
2022/08/16 01:17:46;;;;;;;;;;;;;;;16.97;56.21;100104.16;5052986;28;1215;-55
2022/08/16 01:20:12;;;;;;;;;;;;;;;16.89;55.98;100102.91;5069512;28;1977;-54
2022/08/16 01:22:47;;;;;;;;;;;;;;;16.81;55.66;100112.53;5055095;28;1126;-55
2022/08/16 01:25:32;;;;;;;;;;;;;;;16.73;55.51;100107.69;5054235;28;1246;-54
2022/08/16 01:27:59;;;;;;;;;;;;;;;16.72;55.82;100106.88;5071774;28;2520;-55
2022/08/16 01:30:26;;;;;;;;;;;;;;;17.79;55.90;100103.06;5053481;28;1142;-54
2022/08/16 01:32:53;;;;;;;;;;;;;;;17.26;56.67;100106.84;5041708;28;1205;-54
2022/08/16 01:35:22;;;;;;;;;;;;;;;17.07;56.46;100113.13;5056345;28;973;-55
2022/08/16 01:37:49;;;;;;;;;;;;;;;16.96;56.29;100103.34;5048059;28;970;-54
2022/08/16 01:40:15;;;;;;;;;;;;;;;16.89;55.76;100103.69;5052625;28;1902;-55
2022/08/16 01:42:41;;;;;;;;;;;;;;;16.82;55.60;100105.94;5041400;28;1183;-55
2022/08/16 01:45:06;;;;;;;;;;;;;;;16.75;55.58;100106.28;5037751;28;1476;-55
2022/08/16 01:47:32;;;;;;;;;;;;;;;16.77;55.04;100101.34;5064912;28;1033;-55
2022/08/16 01:49:58;;;;;;;;;;;;;;;16.73;55.23;100099.44;5030570;28;1188;-53
2022/08/16 01:52:23;;;;;;;;;;;;;;;16.63;55.23;100100.38;5046611;28;1246;-54
2022/08/16 01:54:55;;;;;;;;;;;;;;;16.61;55.36;100102.59;5049270;28;1250;-55
2022/08/16 01:57:20;;;;;;;;;;;;;;;16.60;54.99;100101.78;5047746;28;2509;-54
2022/08/16 01:59:46;;;;;;;;;;;;;;;16.51;55.35;100098.03;5072857;28;1901;-56
2022/08/16 02:02:15;;;;;;;;;;;;;;;16.55;54.85;100095.50;5048124;28;1174;-55
2022/08/16 02:04:40;;;;;;;;;;;;;;;17.27;55.70;100086.50;5062477;28;1005;-55
2022/08/16 02:07:08;;;;;;;;;;;;;;;17.57;56.34;100092.66;5057777;28;989;-56
2022/08/16 02:09:36;;;;;;;;;;;;;;;17.15;56.42;100083.34;5051853;28;1362;-56
2022/08/16 02:12:03;;;;;;;;;;;;;;;17.00;56.14;100082.44;5039862;28;1323;-56
2022/08/16 02:14:28;;;;;;;;;;;;;;;16.85;56.09;100079.84;5044662;28;1202;-56
2022/08/16 02:16:56;;;;;;;;;;;;;;;16.81;55.73;100087.03;5049433;28;1359;-55
2022/08/16 02:19:21;;;;;;;;;;;;;;;16.74;55.53;100090.91;5054814;28;1971;-55
2022/08/16 02:21:50;;;;;;;;;;;;;;;16.70;55.44;100095.34;5072142;28;1222;-55
2022/08/16 02:24:15;;;;;;;;;;;;;;;16.64;55.60;100102.03;5056439;28;997;-55
2022/08/16 02:26:41;;;;;;;;;;;;;;;16.55;55.32;100095.50;5047362;28;2289;-55
2022/08/16 02:29:07;;;;;;;;;;;;;;;16.56;55.29;100094.41;5045349;28;1269;-55
2022/08/16 02:31:32;;;;;;;;;;;;;;;16.57;55.26;100107.03;5051106;28;1142;-56
2022/08/16 02:33:58;;;;;;;;;;;;;;;16.51;54.87;100102.69;5038441;28;1254;-52
2022/08/16 02:36:33;;;;;;;;;;;;;;;17.67;56.06;100092.53;5052781;28;1355;-56
2022/08/16 02:38:58;;;;;;;;;;;;;;;17.44;56.67;100094.22;5042912;28;1132;-56
2022/08/16 02:41:24;;;;;;;;;;;;;;;17.15;56.29;100099.84;5064879;28;1913;-55
2022/08/16 02:43:49;;;;;;;;;;;;;;;16.97;56.45;100101.41;5050533;28;1288;-55
2022/08/16 02:46:15;;;;;;;;;;;;;;;16.85;56.12;100107.31;5048766;28;1191;-56
2022/08/16 02:48:40;;;;;;;;;;;;;;;16.80;55.84;100105.41;5053739;28;1587;-56
2022/08/16 02:51:06;;;;;;;;;;;;;;;16.77;55.69;100106.84;5061357;28;902;-56
2022/08/16 02:53:32;;;;;;;;;;;;;;;16.70;55.46;100106.34;5056251;28;1172;-56
2022/08/16 02:55:58;;;;;;;;;;;;;;;16.71;55.31;100113.47;5076767;28;1876;-56
2022/08/16 02:58:23;;;;;;;;;;;;;;;16.60;55.32;100110.00;5046230;28;1597;-56
2022/08/16 03:00:49;;;;;;;;;;;;;;;16.60;55.08;100100.97;5053238;28;1910;-55
2022/08/16 03:03:14;;;;;;;;;;;;;;;16.56;55.17;100103.50;5048063;28;1239;-54
2022/08/16 03:05:40;;;;;;;;;;;;;;;17.71;56.20;100090.00;5071502;28;1071;-56
2022/08/16 03:08:06;;;;;;;;;;;;;;;17.21;56.74;100098.69;5049340;28;1202;-55
2022/08/16 03:10:38;;;;;;;;;;;;;;;16.96;56.60;100097.88;5055003;28;1210;-53
2022/08/16 03:13:04;;;;;;;;;;;;;;;16.88;55.99;100087.50;5056361;28;1318;-54
2022/08/16 03:15:29;;;;;;;;;;;;;;;16.80;55.75;100088.13;5046302;28;1311;-52
2022/08/16 03:17:55;;;;;;;;;;;;;;;16.75;55.58;100095.31;5076718;28;889;-57
2022/08/16 03:20:23;;;;;;;;;;;;;;;16.72;55.46;100093.16;5058328;28;1906;-58
2022/08/16 03:22:49;;;;;;;;;;;;;;;16.64;55.36;100095.72;5055897;28;1030;-56
2022/08/16 03:25:15;;;;;;;;;;;;;;;16.60;55.36;100096.28;5044227;28;1183;-57
2022/08/16 03:27:50;;;;;;;;;;;;;;;16.56;55.40;100099.91;5046026;28;2393;-55
2022/08/16 03:30:17;;;;;;;;;;;;;;;16.52;55.16;100101.59;5054340;28;1335;-55
2022/08/16 03:32:47;;;;;;;;;;;;;;;17.40;56.20;100096.78;5055330;28;1153;-56
2022/08/16 03:35:12;;;;;;;;;;;;;;;17.35;56.50;100099.56;5055166;28;2182;-55
2022/08/16 03:37:42;;;;;;;;;;;;;;;17.05;56.53;100089.78;5057324;28;1110;-56
2022/08/16 03:40:09;;;;;;;;;;;;;;;16.87;56.26;100094.91;5045227;28;1972;-55
2022/08/16 03:42:34;;;;;;;;;;;;;;;16.86;55.75;100092.47;5058623;28;1273;-55
2022/08/16 03:45:00;;;;;;;;;;;;;;;16.79;55.66;100091.97;5074261;28;1071;-55
2022/08/16 03:47:28;;;;;;;;;;;;;;;16.75;55.63;100102.75;5074917;28;1036;-56
2022/08/16 03:49:55;;;;;;;;;;;;;;;16.68;55.30;100108.56;5050721;28;1322;-54
2022/08/16 03:52:21;;;;;;;;;;;;;;;16.58;55.54;100093.03;5052228;28;1130;-56
2022/08/16 03:54:47;;;;;;;;;;;;;;;16.84;55.82;100091.94;5044584;28;1163;-57
2022/08/16 03:57:12;;;;;;;;;;;;;;;17.54;56.14;100098.78;5069953;28;2359;-56
2022/08/16 03:59:38;;;;;;;;;;;;;;;17.08;56.44;100101.03;5068471;28;1909;-56
2022/08/16 04:02:10;;;;;;;;;;;;;;;16.94;56.38;100116.53;5049066;28;1255;-55
2022/08/16 04:04:36;;;;;;;;;;;;;;;16.82;56.18;100116.94;5048095;28;1154;-56
2022/08/16 04:07:03;;;;;;;;;;;;;;;16.81;55.85;100119.97;5052566;28;1346;-55
2022/08/16 04:09:32;;;;;;;;;;;;;;;16.73;55.67;100122.25;5042993;28;1253;-56
2022/08/16 04:11:58;;;;;;;;;;;;;;;16.69;55.58;100118.44;5053218;28;1464;-54
2022/08/16 04:14:23;;;;;;;;;;;;;;;16.61;55.37;100119.06;5053659;28;1186;-56
2022/08/16 04:16:49;;;;;;;;;;;;;;;16.72;55.83;100126.09;5054416;28;1258;-56
2022/08/16 04:19:35;;;;;;;;;;;;;;;17.84;55.80;100121.44;5058451;28;1914;-56
2022/08/16 04:22:01;;;;;;;;;;;;;;;17.24;56.86;100118.13;5062981;28;1044;-56
2022/08/16 04:24:32;;;;;;;;;;;;;;;17.05;56.50;100126.31;5053149;28;1213;-56
2022/08/16 04:26:58;;;;;;;;;;;;;;;16.99;56.24;100118.44;5049804;28;2344;-56
2022/08/16 04:29:24;;;;;;;;;;;;;;;16.89;55.93;100124.88;5052922;28;1358;-56
2022/08/16 04:31:49;;;;;;;;;;;;;;;16.81;55.97;100128.22;5071590;28;961;-56
2022/08/16 04:34:15;;;;;;;;;;;;;;;16.80;55.55;100134.81;5053633;28;1191;-55
2022/08/16 04:36:42;;;;;;;;;;;;;;;16.78;55.65;100126.88;5055953;28;1079;-55
2022/08/16 04:39:08;;;;;;;;;;;;;;;16.70;55.51;100131.03;5049375;28;2002;-55
2022/08/16 04:41:34;;;;;;;;;;;;;;;16.68;55.54;100126.97;5056859;28;1361;-56
2022/08/16 04:44:00;;;;;;;;;;;;;;;16.63;55.50;100125.09;5057303;28;1206;-55
2022/08/16 04:46:26;;;;;;;;;;;;;;;17.53;55.93;100127.38;5039448;28;1205;-55
2022/08/16 04:48:53;;;;;;;;;;;;;;;17.49;56.30;100118.06;5048743;28;1013;-56
2022/08/16 04:51:19;;;;;;;;;;;;;;;17.16;56.49;100115.22;5068293;28;1159;-56
2022/08/16 04:53:46;;;;;;;;;;;;;;;17.00;56.40;100114.56;5057433;28;1122;-56
2022/08/16 04:56:14;;;;;;;;;;;;;;;16.92;56.13;100125.09;5048819;28;2318;-56
2022/08/16 04:58:40;;;;;;;;;;;;;;;16.88;56.04;100114.94;5049170;28;1130;-56
2022/08/16 05:01:05;;;;;;;;;;;;;;;16.82;55.61;100130.66;5052901;28;1955;-54
2022/08/16 05:03:32;;;;;;;;;;;;;;;16.74;55.57;100120.31;5065659;28;944;-56
2022/08/16 05:05:58;;;;;;;;;;;;;;;16.74;55.59;100115.63;5040412;28;1142;-54
2022/08/16 05:08:25;;;;;;;;;;;;;;;16.74;55.29;100121.13;5051260;28;1401;-55
2022/08/16 05:10:56;;;;;;;;;;;;;;;16.67;55.55;100128.06;5058043;28;1562;-56
2022/08/16 05:13:22;;;;;;;;;;;;;;;16.65;55.40;100124.78;5055138;28;1338;-55
2022/08/16 05:15:48;;;;;;;;;;;;;;;16.61;55.45;100124.56;5048108;28;1367;-55
2022/08/16 05:18:15;;;;;;;;;;;;;;;16.65;55.35;100119.31;5038532;28;1147;-56
2022/08/16 05:20:48;;;;;;;;;;;;;;;17.64;55.77;100117.84;5048288;28;1982;-57
2022/08/16 05:23:15;;;;;;;;;;;;;;;17.37;56.64;100111.09;5069650;28;1008;-58
2022/08/16 05:25:42;;;;;;;;;;;;;;;17.07;56.72;100121.34;5049500;28;1179;-57
2022/08/16 05:28:10;;;;;;;;;;;;;;;16.95;56.40;100118.19;5066409;28;2633;-56
2022/08/16 05:30:39;;;;;;;;;;;;;;;16.92;56.14;100118.78;5050839;28;1250;-58
2022/08/16 05:33:12;;;;;;;;;;;;;;;16.88;55.77;100123.19;5055323;28;1334;-57
2022/08/16 05:35:37;;;;;;;;;;;;;;;16.83;55.72;100120.50;5054560;28;1164;-58
2022/08/16 05:38:17;;;;;;;;;;;;;;;16.79;55.47;100116.69;5045614;28;1337;-56
2022/08/16 05:40:43;;;;;;;;;;;;;;;16.77;55.49;100123.31;5040724;28;1975;-57
2022/08/16 05:43:10;;;;;;;;;;;;;;;16.74;55.46;100112.06;5037011;28;1149;-58
2022/08/16 05:45:38;;;;;;;;;;;;;;;16.70;55.71;100130.25;5050005;28;1250;-58
2022/08/16 05:48:04;;;;;;;;;;;;;;;18.34;52.40;100118.19;5056874;28;1227;-58
2022/08/16 05:50:52;;;;;;;;;;;;;;;17.09;54.03;100121.06;5072965;28;1181;-57
2022/08/16 05:53:17;;;;;;;;;;;;;;;16.67;53.56;100128.88;5060896;28;931;-54
2022/08/16 05:55:59;;;;;;;;;;;;;;;16.77;53.25;100128.81;5047409;28;1826;-59
2022/08/16 05:58:25;;;;;;;;;;;;;;;17.75;53.94;100130.38;5052760;28;1162;-59
2022/08/16 06:00:50;;;;;;;;;;;;;;;17.02;53.97;100120.59;5065322;28;1985;-58
2022/08/16 06:03:17;;;;;;;;;;;;;;;16.88;52.87;100135.00;5049920;28;1131;-59
2022/08/16 06:05:54;;;;;;;;;;;;;;;16.77;51.78;100134.28;5053301;28;1346;-58
2022/08/16 06:08:21;;;;;;;;;;;;;;;16.67;51.51;100133.56;5053181;28;1185;-58
2022/08/16 06:10:47;;;;;;;;;;;;;;;17.25;52.64;100128.00;5056021;28;2345;-56
2022/08/16 06:13:13;;;;;;;;;;;;;;;17.39;53.24;100128.09;5056387;28;1120;-58
2022/08/16 06:15:38;;;;;;;;;;;;;;;17.03;52.67;100123.03;5046907;28;1289;-59
2022/08/16 06:18:04;;;;;;;;;;;;;;;16.99;51.55;100129.44;5064724;28;1001;-57
2022/08/16 06:20:29;;;;;;;;;;;;;;;16.80;51.38;100137.56;5052862;28;1917;-58
2022/08/16 06:22:57;;;;;;;;;;;;;;;16.85;50.38;100123.78;5056548;28;1201;-59
2022/08/16 06:25:25;;;;;;;;;;;;;;;16.80;50.14;100121.88;5043504;28;1110;-58
2022/08/16 06:27:51;;;;;;;;;;;;;;;16.74;50.09;100129.34;5049307;28;2671;-60
2022/08/16 06:30:17;;;;;;;;;;;;;;;17.95;51.91;100118.28;5055358;28;1455;-63
2022/08/16 06:32:43;;;;;;;;;;;;;;;17.26;52.32;100126.91;5069279;28;1135;-59
2022/08/16 06:35:10;;;;;;;;;;;;;;;17.06;51.63;100122.44;5050214;28;1153;-60
2022/08/16 06:37:36;;;;;;;;;;;;;;;16.94;50.99;100133.03;5050957;28;1259;-60
2022/08/16 06:40:02;;;;;;;;;;;;;;;16.93;50.32;100134.16;5041682;28;1918;-58
2022/08/16 06:42:38;;;;;;;;;;;;;;;16.83;50.26;100136.97;5057330;28;1151;-57
2022/08/16 06:45:10;;;;;;;;;;;;;;;16.80;49.88;100126.56;5059025;28;1377;-58
2022/08/16 06:47:41;;;;;;;;;;;;;;;17.90;51.15;100128.50;5042584;28;1272;-60
2022/08/16 06:50:07;;;;;;;;;;;;;;;17.15;51.49;100117.13;5050571;28;1150;-58
2022/08/16 06:52:41;;;;;;;;;;;;;;;17.12;51.05;100111.41;5054156;28;1143;-58
2022/08/16 06:55:07;;;;;;;;;;;;;;;17.07;50.37;100120.53;5052640;28;1227;-57
2022/08/16 06:57:34;;;;;;;;;;;;;;;17.00;50.19;100120.88;5047002;28;2497;-57
2022/08/16 07:00:00;;;;;;;;;;;;;;;16.94;49.85;100108.31;5068999;28;1913;-59
2022/08/16 07:02:35;;;;;;;;;;;;;;;17.00;49.18;100114.56;5050905;28;1406;-59
2022/08/16 07:05:05;;;;;;;;;;;;;;;17.00;49.04;100109.91;5045363;28;1206;-60
2022/08/16 07:07:32;;;;;;;;;;;;;;;16.99;49.13;100119.25;5059441;28;1125;-61
2022/08/16 07:09:58;;;;;;;;;;;;;;;16.90;48.97;100104.50;5056230;28;1435;-60
2022/08/16 07:12:24;;;;;;;;;;;;;;;16.92;48.94;100118.78;5038345;28;1369;-58
2022/08/16 07:14:49;;;;;;;;;;;;;;;16.87;49.04;100119.63;5053374;28;1150;-60
2022/08/16 07:17:18;;;;;;;;;;;;;;;16.90;48.96;100104.50;5045768;28;1281;-60
2022/08/16 07:19:49;;;;;;;;;;;;;;;16.88;48.94;100109.47;5055765;28;1906;-61
2022/08/16 07:22:15;;;;;;;;;;;;;;;16.86;49.00;100108.94;5054179;28;1501;-60
2022/08/16 07:24:43;;;;;;;;;;;;;;;16.85;48.68;100112.78;5057409;28;1111;-58
2022/08/16 07:27:08;;;;;;;;;;;;;;;16.86;48.83;100114.44;5056100;28;2362;-48
2022/08/16 07:29:35;;;;;;;;;;;;;;;17.45;49.67;100112.38;5053146;28;1146;-55
2022/08/16 07:32:00;;;;;;;;;;;;;;;17.46;50.70;100116.75;5056691;28;1262;-50
2022/08/16 07:34:26;;;;;;;;;;;;;;;17.18;50.46;100108.31;5040338;28;1273;-53
2022/08/16 07:36:51;;;;;;;;;;;;;;;17.07;50.21;100098.56;5065893;28;953;-52
2022/08/16 07:39:18;;;;;;;;;;;;;;;17.06;49.58;100103.22;5059162;28;2000;-53
2022/08/16 07:41:44;;;;;;;;;;;;;;;17.05;49.55;100096.09;5071084;28;1037;-48
2022/08/16 07:44:09;;;;;;;;;;;;;;;17.01;49.34;100095.06;5073197;28;1167;-53
2022/08/16 07:46:34;;;;;;;;;;;;;;;17.03;49.14;100092.03;5066770;28;1079;-53
2022/08/16 07:49:05;;;;;;;;;;;;;;;16.96;49.30;100095.13;5046426;28;1298;-51
2022/08/16 07:51:35;;;;;;;;;;;;;;;16.97;49.06;100096.75;5067333;28;1105;-54
2022/08/16 07:54:02;;;;;;;;;;;;;;;16.92;49.02;100092.13;5047175;28;1206;-51
2022/08/16 07:56:28;;;;;;;;;;;;;;;17.01;48.83;100089.56;5051837;28;1914;-54
2022/08/16 07:58:54;;;;;;;;;;;;;;;16.98;48.58;100084.66;5056312;28;1628;-53
2022/08/16 08:01:19;;;;;;;;;;;;;;;16.97;48.84;100088.53;5056258;28;1905;-54
2022/08/16 08:03:48;;;;;;;;;;;;;;;16.96;48.69;100092.38;5057158;28;1218;-52
2022/08/16 08:06:16;;;;;;;;;;;;;;;16.99;48.73;100091.78;5036684;28;1262;-54
2022/08/16 08:08:42;;;;;;;;;;;;;;;17.00;48.53;100098.09;5041635;28;1130;-48
2022/08/16 08:11:08;;;;;;;;;;;;;;;16.97;48.41;100091.28;5052757;28;1239;-54
2022/08/16 08:13:34;;;;;;;;;;;;;;;16.94;48.54;100086.34;5067598;28;1127;-53
2022/08/16 08:15:59;;;;;;;;;;;;;;;16.99;48.62;100085.47;5053991;28;1095;-52
2022/08/16 08:18:25;;;;;;;;;;;;;;;17.01;48.42;100100.56;5049525;28;1171;-52
2022/08/16 08:20:50;;;;;;;;;;;;;;;17.00;48.44;100103.56;5056266;28;1975;-50
2022/08/16 08:23:17;;;;;;;;;;;;;;;16.97;48.45;100091.28;5074143;28;977;-54
2022/08/16 08:25:47;;;;;;;;;;;;;;;16.95;48.46;100096.22;5058134;28;1169;-51
2022/08/16 08:28:13;;;;;;;;;;;;;;;16.95;48.44;100098.97;5045519;28;1948;-52
2022/08/16 08:30:41;;;;;;;;;;;;;;;16.94;48.41;100094.56;5046223;28;1134;-52
2022/08/16 08:33:06;;;;;;;;;;;;;;;17.00;48.45;100092.59;5038039;28;1425;-52
2022/08/16 08:35:35;;;;;;;;;;;;;;;16.98;48.49;100089.34;5056167;28;1208;-51
2022/08/16 08:38:02;;;;;;;;;;;;;;;16.91;48.59;100085.03;5050787;28;1408;-51
2022/08/16 08:40:29;;;;;;;;;;;;;;;16.99;48.51;100086.28;5051712;28;1969;-52
2022/08/16 08:42:56;;;;;;;;;;;;;;;17.00;48.32;100090.69;5050626;28;1208;-49
2022/08/16 08:45:22;;;;;;;;;;;;;;;17.02;48.33;100090.38;5049505;28;1137;-54
2022/08/16 08:47:48;;;;;;;;;;;;;;;16.94;48.61;100094.56;5067828;28;962;-54
2022/08/16 08:50:15;;;;;;;;;;;;;;;16.88;48.79;100082.00;5065996;28;1036;-56
2022/08/16 08:52:41;;;;;;;;;;;;;;;16.97;48.52;100085.78;5044748;28;1470;-51
2022/08/16 08:55:08;;;;;;;;;;;;;;;16.99;48.52;100089.03;5054951;28;1309;-62
2022/08/16 08:57:34;;;;;;;;;;;;;;;17.01;48.34;100084.09;5045497;28;2385;-58
2022/08/16 09:00:31;;;;;;;;;;;;;;;16.98;48.40;100059.94;5041931;28;1909;-59
2022/08/16 09:03:02;;;;;;;;;;;;;;;17.03;48.23;100070.06;5049162;28;1114;-56
2022/08/16 09:05:29;;;;;;;;;;;;;;;16.96;48.55;100073.16;5043867;28;1241;-59
2022/08/16 09:07:55;;;;;;;;;;;;;;;17.00;48.39;100071.44;5050763;28;997;-59
2022/08/16 09:10:25;;;;;;;;;;;;;;;17.02;48.63;100073.91;5040334;28;1458;-59
2022/08/16 09:12:51;;;;;;;;;;;;;;;17.01;48.47;100073.09;5072146;28;1036;-59
2022/08/16 09:15:20;;;;;;;;;;;;;;;17.02;48.35;100058.22;5069890;28;1159;-58
2022/08/16 09:17:46;;;;;;;;;;;;;;;16.96;48.47;100066.81;5057576;28;1030;-58
2022/08/16 09:20:15;;;;;;;;;;;;;;;17.00;48.44;100065.13;5054272;28;1945;-59
2022/08/16 09:22:40;;;;;;;;;;;;;;;16.98;48.45;100061.88;5074700;28;1025;-59
2022/08/16 09:25:07;;;;;;;;;;;;;;;17.05;48.31;100056.81;5055385;28;1161;-57
2022/08/16 09:27:33;;;;;;;;;;;;;;;17.04;48.76;100060.69;5042238;28;1979;-56
2022/08/16 09:29:59;;;;;;;;;;;;;;;17.07;48.67;100060.13;5050823;28;1330;-57
2022/08/16 09:32:24;;;;;;;;;;;;;;;17.07;48.48;100057.38;5065908;28;989;-57
2022/08/16 09:34:49;;;;;;;;;;;;;;;17.01;48.60;100048.38;5071386;28;958;-58
2022/08/16 09:37:15;;;;;;;;;;;;;;;17.08;48.36;100054.31;5068018;28;1206;-59
2022/08/16 09:39:43;;;;;;;;;;;;;;;17.13;48.43;100066.34;5072179;28;1898;-61
2022/08/16 09:42:09;;;;;;;;;;;;;;;17.14;48.51;100059.72;5063542;28;949;-61
2022/08/16 09:44:35;;;;;;;;;;;;;;;17.04;48.68;100058.78;5071148;28;1088;-61
2022/08/16 09:47:00;;;;;;;;;;;;;;;17.03;48.59;100048.88;5071631;28;1001;-61
2022/08/16 09:49:26;;;;;;;;;;;;;;;17.06;48.68;100055.72;5070518;28;1147;-58
2022/08/16 09:51:53;;;;;;;;;;;;;;;17.04;48.41;100049.69;5067063;28;936;-56
2022/08/16 09:54:22;;;;;;;;;;;;;;;17.12;48.44;100061.97;5044532;28;1254;-59
2022/08/16 09:56:48;;;;;;;;;;;;;;;17.11;48.51;100052.91;5056269;28;2384;-58
2022/08/16 09:59:14;;;;;;;;;;;;;;;17.18;48.21;100044.28;5056723;28;1067;-57
2022/08/16 10:01:41;;;;;;;;;;;;;;;17.08;48.49;100054.31;5064596;28;1967;-56
2022/08/16 10:04:07;;;;;;;;;;;;;;;17.07;48.69;100055.44;5075612;28;890;-56
2022/08/16 10:06:32;;;;;;;;;;;;;;;17.10;48.35;100049.34;5064708;28;863;-58
2022/08/16 10:08:58;;;;;;;;;;;;;;;17.14;48.35;100044.09;5067798;28;1021;-58
2022/08/16 10:14:07;;;;;;;;;;;;;;;17.20;48.21;100053.06;5078371;28;1171;-52
2022/08/16 10:16:33;;;;;;;;;;;;;;;17.21;48.29;100049.22;5077972;28;1198;-58
2022/08/16 10:18:59;;;;;;;;;;;;;;;17.16;48.55;100044.59;5062340;28;1005;-57
2022/08/16 10:21:25;;;;;;;;;;;;;;;17.22;48.30;100050.84;5055924;28;1909;-58
2022/08/16 10:23:51;;;;;;;;;;;;;;;17.27;48.44;100059.00;5081641;28;946;-57
2022/08/16 10:26:16;;;;;;;;;;;;;;;17.34;48.08;100044.91;5078075;28;2606;-59
2022/08/16 10:28:42;;;;;;;;;;;;;;;17.27;48.49;100045.28;5070720;28;949;-60
2022/08/16 10:31:08;;;;;;;;;;;;;;;17.26;48.61;100052.72;5068033;28;1025;-59
2022/08/16 10:33:34;;;;;;;;;;;;;;;17.27;48.55;100042.53;5073242;28;1064;-60
2022/08/16 10:36:00;;;;;;;;;;;;;;;17.22;48.61;100050.84;5076366;28;1205;-58
2022/08/16 10:38:26;;;;;;;;;;;;;;;17.23;48.57;100053.28;5078163;28;1009;-57
2022/08/16 10:40:51;;;;;;;;;;;;;;;17.31;48.48;100043.56;5068086;28;1968;-58
2022/08/16 10:43:17;;;;;;;;;;;;;;;17.23;48.67;100060.72;5074833;28;1009;-54
2022/08/16 10:45:42;;;;;;;;;;;;;;;17.22;48.54;100067.31;5078901;28;1037;-58
2022/08/16 10:48:09;;;;;;;;;;;;;;;17.34;48.52;100062.22;5071595;28;1163;-60
2022/08/16 10:50:35;;;;;;;;;;;;;;;17.39;48.28;100061.31;5063983;28;1325;-62
2022/08/16 10:53:05;;;;;;;;;;;;;;;17.32;48.27;100072.69;5063337;28;1242;-59
2022/08/16 10:55:35;;;;;;;;;;;;;;;17.32;48.30;100061.72;5060823;28;1321;-58
2022/08/16 10:58:02;;;;;;;;;;;;;;;17.32;48.32;100061.72;5077791;28;1793;-60
2022/08/16 11:00:27;;;;;;;;;;;;;;;17.31;48.39;100060.06;5067472;28;1925;-56
2022/08/16 11:02:53;;;;;;;;;;;;;;;17.40;48.38;100041.81;5064463;28;1380;-55
2022/08/16 11:05:18;;;;;;;;;;;;;;;17.39;48.12;100055.81;5070270;28;1339;-57
2022/08/16 11:07:45;;;;;;;;;;;;;;;17.38;48.50;100055.00;5063942;28;1357;-60
2022/08/16 11:10:11;;;;;;;;;;;;;;;17.34;48.31;100050.41;5068379;28;1312;-61
2022/08/16 11:12:38;;;;;;;;;;;;;;;17.38;48.37;100043.22;5067376;28;1364;-59
2022/08/16 11:15:04;;;;;;;;;;;;;;;17.35;48.42;100044.63;5072477;28;1266;-61
2022/08/16 11:17:29;;;;;;;;;;;;;;;17.36;48.48;100053.66;5062644;28;1360;-59
2022/08/16 11:19:55;;;;;;;;;;;;;;;17.43;48.33;100052.19;5058240;28;1941;-60
2022/08/16 11:22:21;;;;;;;;;;;;;;;17.37;48.42;100042.38;5057896;28;1420;-61
2022/08/16 11:24:47;;;;;;;;;;;;;;;17.38;48.58;100051.47;5057989;28;1403;-61
2022/08/16 11:27:13;;;;;;;;;;;;;;;17.42;48.16;100050.56;5069821;28;2339;-60
2022/08/16 11:29:39;;;;;;;;;;;;;;;17.38;48.31;100051.47;5072312;28;1127;-60
2022/08/16 11:32:05;;;;;;;;;;;;;;;17.42;48.23;100047.00;5065305;28;1155;-61
2022/08/16 11:34:31;;;;;;;;;;;;;;;17.43;48.22;100040.38;5073118;28;1103;-62
2022/08/16 11:36:56;;;;;;;;;;;;;;;17.47;48.28;100035.91;5076274;28;1048;-62
2022/08/16 11:39:22;;;;;;;;;;;;;;;17.45;48.44;100016.97;5046435;28;2010;-62
2022/08/16 11:41:47;;;;;;;;;;;;;;;17.44;48.40;100031.81;5071533;28;1060;-62
2022/08/16 11:44:12;;;;;;;;;;;;;;;17.45;48.41;100033.47;5071673;28;1064;-63
2022/08/16 11:46:38;;;;;;;;;;;;;;;17.46;48.53;100039.81;5076532;28;1067;-62
2022/08/16 11:49:03;;;;;;;;;;;;;;;17.53;48.00;100031.16;5077013;28;1024;-62
2022/08/16 11:51:29;;;;;;;;;;;;;;;17.44;48.58;100028.28;5053871;28;1132;-64
2022/08/16 11:53:54;;;;;;;;;;;;;;;17.44;48.27;100031.03;5063826;28;970;-61
2022/08/16 11:56:20;;;;;;;;;;;;;;;17.52;48.11;100032.28;5068462;28;1920;-61
2022/08/16 11:58:45;;;;;;;;;;;;;;;17.55;48.09;100020.69;5072759;28;1076;-61
2022/08/16 12:01:13;;;;;;;;;;;;;;;17.49;48.28;100032.88;5072169;28;1906;-60
2022/08/16 12:03:38;;;;;;;;;;;;;;;17.53;48.36;100028.41;5068120;28;1191;-61
2022/08/16 12:06:07;;;;;;;;;;;;;;;17.57;48.32;100023.94;5073320;28;1331;-59
2022/08/16 12:08:33;;;;;;;;;;;;;;;17.54;48.63;100019.84;5057332;28;1393;-59
2022/08/16 12:10:58;;;;;;;;;;;;;;;17.50;48.56;100012.50;5061578;28;1013;-61
2022/08/16 12:13:24;;;;;;;;;;;;;;;17.55;48.45;100015.19;5068685;28;1103;-61
2022/08/16 12:15:50;;;;;;;;;;;;;;;17.56;48.39;100016.84;5069003;28;1072;-60
2022/08/16 12:18:16;;;;;;;;;;;;;;;17.54;48.45;100019.84;5069768;28;1059;-60
2022/08/16 12:20:42;;;;;;;;;;;;;;;17.55;48.50;100015.19;5069856;28;1910;-57
2022/08/16 12:23:07;;;;;;;;;;;;;;;17.56;48.39;100011.34;5074183;28;1041;-58
2022/08/16 12:25:33;;;;;;;;;;;;;;;17.57;48.69;100018.44;5073834;28;1064;-61
2022/08/16 12:27:58;;;;;;;;;;;;;;;17.52;48.80;100016.59;5055943;28;2381;-60
2022/08/16 12:30:27;;;;;;;;;;;;;;;17.55;48.61;100009.69;5067058;28;1140;-60
2022/08/16 12:32:53;;;;;;;;;;;;;;;17.65;48.43;100020.53;5059575;28;1013;-57
2022/08/16 12:35:20;;;;;;;;;;;;;;;17.57;48.42;100011.03;5076627;28;922;-60
2022/08/16 12:37:45;;;;;;;;;;;;;;;17.65;48.67;100015.03;5048196;28;1045;-60
2022/08/16 12:40:11;;;;;;;;;;;;;;;17.69;48.52;100026.25;5071840;28;1980;-60
2022/08/16 12:42:37;;;;;;;;;;;;;;;17.55;48.57;100015.19;5065719;28;1092;-59
2022/08/16 12:45:07;;;;;;;;;;;;;;;17.65;48.54;100020.53;5057709;28;1095;-61
2022/08/16 12:50:16;;;;;;;;;;;;;;;17.71;48.45;100026.75;5064446;28;1029;-59